createdAt,value
2022-08-18T00:01:24.277Z,14.05
2022-08-18T00:03:56.673Z,15.35
2022-08-18T00:06:30.125Z,14.60
2022-08-18T00:09:04.015Z,15.07
2022-08-18T00:11:41.312Z,15.27
2022-08-18T00:14:22.297Z,15.82
2022-08-18T00:16:53.991Z,14.65
2022-08-18T00:19:45.779Z,14.63
2022-08-18T00:22:15.496Z,14.95
2022-08-18T00:24:48.044Z,14.90
2022-08-18T00:27:19.634Z,14.40
2022-08-18T00:29:49.972Z,15.07
2022-08-18T00:32:25.963Z,15.85
2022-08-18T00:34:54.611Z,14.40
2022-08-18T00:37:23.440Z,14.90
2022-08-18T00:39:54.441Z,14.73
2022-08-18T00:42:31.033Z,16.70
2022-08-18T00:45:03.885Z,14.70
2022-08-18T00:47:33.046Z,16.38
2022-08-18T00:50:21.291Z,16.20
2022-08-18T00:53:00.932Z,16.23
2022-08-18T00:55:30.496Z,16.92
2022-08-18T00:58:16.721Z,15.23
2022-08-18T01:00:45.829Z,14.95
2022-08-18T01:03:16.657Z,14.93
2022-08-18T01:06:21.790Z,14.73
2022-08-18T01:08:49.286Z,15.05
2022-08-18T01:11:16.236Z,14.38
2022-08-18T01:13:43.810Z,14.90
2022-08-18T01:16:30.054Z,14.70
2022-08-18T01:19:16.323Z,16.00
2022-08-18T01:21:51.096Z,15.40
2022-08-18T01:24:49.183Z,15.70
2022-08-18T01:27:18.746Z,15.48
2022-08-18T01:29:49.164Z,16.17
2022-08-18T01:32:23.326Z,16.02
2022-08-18T01:34:52.513Z,15.85
2022-08-18T01:37:23.701Z,15.68
2022-08-18T01:41:23.601Z,15.63
2022-08-18T01:42:39.929Z,16.10
2022-08-18T01:45:08.265Z,16.05
2022-08-18T01:47:47.179Z,15.45
2022-08-18T01:50:15.550Z,15.88
2022-08-18T01:52:42.493Z,14.63
2022-08-18T01:55:10.542Z,14.57
2022-08-18T01:57:43.079Z,14.65
2022-08-18T02:00:13.696Z,14.95
2022-08-18T02:02:42.245Z,15.65
2022-08-18T02:05:35.500Z,15.45
2022-08-18T02:08:03.188Z,14.77
2022-08-18T02:10:30.392Z,16.25
2022-08-18T02:12:57.438Z,14.43
2022-08-18T02:15:24.410Z,14.63
2022-08-18T02:17:51.766Z,15.52
2022-08-18T02:20:19.807Z,15.07
2022-08-18T02:22:48.296Z,15.73
2022-08-18T02:25:17.117Z,14.18
2022-08-18T02:27:45.921Z,14.65
2022-08-18T02:30:18.411Z,14.90
2022-08-18T02:32:45.522Z,15.85
2022-08-18T02:35:12.867Z,15.13
2022-08-18T02:37:50.387Z,16.30
2022-08-18T02:40:19.199Z,16.75
2022-08-18T02:42:47.557Z,15.73
2022-08-18T02:45:14.933Z,15.65
2022-08-18T02:47:44.156Z,16.30
2022-08-18T02:50:12.999Z,16.88
2022-08-18T02:52:40.741Z,16.75
2022-08-18T02:55:09.138Z,16.70
2022-08-18T02:57:36.182Z,16.40
2022-08-18T03:00:04.389Z,16.55
2022-08-18T03:02:32.438Z,16.40
2022-08-18T03:04:59.560Z,15.43
2022-08-18T03:07:26.571Z,15.43
2022-08-18T03:09:53.521Z,16.25
2022-08-18T03:12:20.594Z,17.05
2022-08-18T03:14:47.682Z,16.20
2022-08-18T03:17:15.126Z,15.80
2022-08-18T03:19:43.978Z,16.15
2022-08-18T03:22:27.452Z,17.23
2022-08-18T03:24:58.239Z,17.73
2022-08-18T03:27:26.113Z,18.52
2022-08-18T03:29:53.554Z,17.38
2022-08-18T03:32:20.505Z,17.60
2022-08-18T03:34:47.614Z,16.42
2022-08-18T03:37:16.217Z,18.23
2022-08-18T03:39:43.324Z,16.20
2022-08-18T03:42:10.413Z,16.98
2022-08-18T03:44:37.467Z,17.42
2022-08-18T03:47:09.955Z,17.15
2022-08-18T03:49:38.688Z,17.27
2022-08-18T03:52:10.224Z,16.80
2022-08-18T03:54:38.980Z,16.35
2022-08-18T03:57:10.131Z,17.52
2022-08-18T03:59:38.245Z,17.13
2022-08-18T04:02:05.784Z,17.55
2022-08-18T04:04:33.074Z,16.20
2022-08-18T04:07:08.173Z,17.85
2022-08-18T04:09:37.624Z,16.48
2022-08-18T04:12:16.248Z,18.15
2022-08-18T04:14:48.985Z,17.20
2022-08-18T04:17:25.137Z,16.85
2022-08-18T04:19:55.090Z,16.63
2022-08-18T04:22:23.346Z,17.23
2022-08-18T04:24:50.618Z,16.75
2022-08-18T04:27:20.590Z,18.35
2022-08-18T04:29:47.982Z,16.83
2022-08-18T04:32:15.240Z,17.60
2022-08-18T04:34:42.212Z,17.55
2022-08-18T04:37:09.808Z,16.15
2022-08-18T04:39:37.889Z,15.80
2022-08-18T04:42:06.018Z,16.30
2022-08-18T04:44:33.967Z,14.65
2022-08-18T04:47:01.951Z,14.93
2022-08-18T04:49:30.320Z,14.70
2022-08-18T04:52:38.750Z,14.73
2022-08-18T04:55:05.939Z,15.40
2022-08-18T04:57:34.902Z,15.57
2022-08-18T05:00:02.971Z,15.15
2022-08-18T05:02:33.009Z,14.95
2022-08-18T05:05:01.348Z,15.93
2022-08-18T05:07:28.389Z,14.45
2022-08-18T05:09:55.630Z,13.18
2022-08-18T05:12:26.055Z,14.23
2022-08-18T05:14:54.293Z,14.95
2022-08-18T05:17:21.316Z,14.32
2022-08-18T05:19:49.824Z,13.38
2022-08-18T05:22:19.719Z,13.63
2022-08-18T05:24:55.858Z,13.52
2022-08-18T05:27:22.823Z,13.63
2022-08-18T05:29:51.572Z,12.88
2022-08-18T05:32:41.240Z,12.02
2022-08-18T05:35:20.196Z,12.77
2022-08-18T05:38:35.631Z,13.48
2022-08-18T05:41:22.891Z,14.43
2022-08-18T05:43:52.577Z,12.02
2022-08-18T05:46:25.964Z,12.63
2022-08-18T05:48:52.944Z,12.85
2022-08-18T05:51:36.700Z,11.68
2022-08-18T05:54:24.916Z,11.85
2022-08-18T05:56:54.314Z,11.57
2022-08-18T05:59:28.761Z,12.00
2022-08-18T06:02:17.897Z,9.95
2022-08-18T06:05:01.821Z,10.43
2022-08-18T06:08:02.223Z,10.57
2022-08-18T06:10:31.771Z,11.35
2022-08-18T06:13:01.733Z,11.30
2022-08-18T06:15:55.767Z,12.13
2022-08-18T06:18:50.605Z,12.05
2022-08-18T06:21:44.878Z,12.70
2022-08-18T06:24:56.517Z,12.80
2022-08-18T06:27:44.747Z,10.23
2022-08-18T06:30:24.083Z,10.35
2022-08-18T06:33:11.975Z,10.77
2022-08-18T06:35:46.687Z,10.77
2022-08-18T06:38:41.009Z,11.63
2022-08-18T06:41:44.029Z,11.07
2022-08-18T06:44:20.184Z,11.05
2022-08-18T06:47:04.197Z,10.88
2022-08-18T06:49:57.073Z,10.90
2022-08-18T06:52:30.592Z,10.23
2022-08-18T06:55:07.286Z,10.07
2022-08-18T06:57:36.289Z,9.38
2022-08-18T07:00:24.266Z,9.18
2022-08-18T07:03:22.483Z,9.27
2022-08-18T07:06:05.127Z,9.55
2022-08-18T07:08:42.477Z,8.10
2022-08-18T07:11:33.160Z,9.25
2022-08-18T07:14:25.549Z,8.38
2022-08-18T07:17:42.532Z,7.78
2022-08-18T07:20:22.546Z,7.28
2022-08-18T07:23:08.145Z,8.02
2022-08-18T07:25:44.234Z,8.50
2022-08-18T07:28:46.571Z,8.45
2022-08-18T07:31:36.072Z,7.43
2022-08-18T07:34:36.510Z,7.15
2022-08-18T07:37:59.273Z,8.43
2022-08-18T07:40:38.002Z,7.95
2022-08-18T07:43:22.266Z,7.10
2022-08-18T07:45:53.232Z,7.65
2022-08-18T07:48:38.641Z,7.35
2022-08-18T07:51:24.157Z,7.63
2022-08-18T07:53:56.904Z,8.20
2022-08-18T07:56:56.068Z,8.02
2022-08-18T07:59:55.795Z,7.82
2022-08-18T08:02:35.200Z,7.68
2022-08-18T08:05:39.891Z,7.70
2022-08-18T08:08:29.096Z,7.57
2022-08-18T08:11:16.995Z,6.80
2022-08-18T08:14:17.341Z,7.13
2022-08-18T08:17:04.364Z,8.15
2022-08-18T08:20:02.332Z,7.18
2022-08-18T08:22:39.719Z,7.32
2022-08-18T08:25:46.875Z,7.47
2022-08-18T08:28:31.035Z,6.88
2022-08-18T08:31:37.664Z,7.30
2022-08-18T08:34:14.959Z,7.10
2022-08-18T08:36:46.859Z,6.60
2022-08-18T08:39:57.928Z,7.82
2022-08-18T08:42:41.844Z,6.90
2022-08-18T08:45:24.965Z,7.80
2022-08-18T08:48:24.514Z,6.97
2022-08-18T08:51:06.326Z,7.70
2022-08-18T08:53:52.219Z,7.68
2022-08-18T08:56:29.545Z,7.45
2022-08-18T08:59:05.404Z,6.28
2022-08-18T09:01:52.424Z,11.32
2022-08-18T09:05:08.671Z,12.45
2022-08-18T09:08:07.137Z,6.82
2022-08-18T09:11:18.058Z,7.18
2022-08-18T09:14:15.807Z,9.82
2022-08-18T09:17:33.861Z,9.90
2022-08-18T09:20:16.620Z,7.28
2022-08-18T09:22:54.078Z,6.90
2022-08-18T09:25:39.489Z,7.18
2022-08-18T09:28:19.643Z,7.22
2022-08-18T09:31:01.927Z,7.88
2022-08-18T09:34:09.705Z,7.57
2022-08-18T09:37:14.190Z,7.90
2022-08-18T09:40:33.394Z,7.82
2022-08-18T09:43:20.166Z,8.02
2022-08-18T09:45:47.241Z,6.65
2022-08-18T09:48:20.699Z,7.63
2022-08-18T09:51:18.334Z,6.88
2022-08-18T09:53:46.115Z,7.43
2022-08-18T09:56:19.644Z,6.43
2022-08-18T09:59:02.825Z,9.02
2022-08-18T10:01:40.165Z,7.63
2022-08-18T10:04:28.924Z,6.53
2022-08-18T10:13:51.674Z,8.43
2022-08-18T10:17:23.457Z,6.30
2022-08-18T10:23:08.088Z,7.82
2022-08-18T10:25:47.769Z,6.45
2022-08-18T10:28:55.355Z,7.30
2022-08-18T10:31:24.057Z,5.90
2022-08-18T10:34:16.820Z,6.72
2022-08-18T10:37:00.642Z,6.45
2022-08-18T10:39:41.225Z,6.93
2022-08-18T10:42:33.631Z,5.60
2022-08-18T10:45:24.667Z,6.57
2022-08-18T10:48:17.290Z,6.07
2022-08-18T10:51:07.333Z,6.72
2022-08-18T10:53:54.700Z,6.03
2022-08-18T10:56:55.705Z,6.20
2022-08-18T11:00:18.777Z,5.68
2022-08-18T11:02:45.592Z,5.63
2022-08-18T11:05:24.364Z,5.88
2022-08-18T11:08:16.206Z,5.07
2022-08-18T11:11:06.202Z,5.68
2022-08-18T11:14:05.599Z,5.50
2022-08-18T11:16:56.557Z,5.50
2022-08-18T11:19:27.000Z,5.40
2022-08-18T11:21:54.542Z,5.15
2022-08-18T11:24:32.244Z,5.00
2022-08-18T11:27:16.751Z,4.53
2022-08-18T11:29:44.887Z,5.50
2022-08-18T11:32:29.999Z,5.25
2022-08-18T11:34:59.693Z,4.90
2022-08-18T11:37:49.788Z,4.63
2022-08-18T11:43:10.572Z,5.00
2022-08-18T11:45:45.828Z,5.45
2022-08-18T11:48:37.711Z,5.95
2022-08-18T11:51:27.346Z,4.85
2022-08-18T11:54:21.805Z,5.15
2022-08-18T11:56:50.683Z,5.50
2022-08-18T12:02:18.945Z,5.78
2022-08-18T12:04:53.308Z,5.68
2022-08-18T12:07:35.333Z,5.70
2022-08-18T12:10:26.463Z,5.97
2022-08-18T12:13:00.878Z,5.43
2022-08-18T12:15:43.418Z,5.53
2022-08-18T12:18:26.636Z,5.43
2022-08-18T12:20:58.741Z,4.78
2022-08-18T12:23:26.179Z,5.70
2022-08-18T12:25:53.282Z,5.28
2022-08-18T12:28:28.383Z,5.55
2022-08-18T12:30:56.936Z,5.90
2022-08-18T12:33:25.170Z,5.68
2022-08-18T12:35:52.908Z,5.90
2022-08-18T12:38:19.942Z,5.53
2022-08-18T12:40:46.938Z,5.82
2022-08-18T12:43:13.939Z,5.57
2022-08-18T12:45:42.277Z,4.93
2022-08-18T12:48:09.840Z,5.40
2022-08-18T12:50:50.148Z,6.10
2022-08-18T12:56:25.026Z,5.18
2022-08-18T12:58:53.357Z,5.32
2022-08-18T13:01:23.358Z,5.57
2022-08-18T13:04:11.112Z,5.57
2022-08-18T13:07:00.514Z,5.85
2022-08-18T13:09:48.536Z,5.60
2022-08-18T13:12:20.449Z,6.28
2022-08-18T13:14:49.907Z,5.85
2022-08-18T13:17:32.421Z,5.35
2022-08-18T13:20:11.350Z,5.72
2022-08-18T13:22:41.205Z,6.40
2022-08-18T13:25:12.855Z,5.78
2022-08-18T13:28:00.815Z,5.25
2022-08-18T13:30:31.497Z,5.68
2022-08-18T13:33:05.916Z,6.35
2022-08-18T13:35:52.013Z,5.72
2022-08-18T13:38:25.991Z,5.88
2022-08-18T13:40:58.775Z,6.30
2022-08-18T13:43:34.530Z,5.57
2022-08-18T13:46:02.761Z,5.68
2022-08-18T13:48:32.009Z,5.18
2022-08-18T13:51:01.428Z,5.50
2022-08-18T13:53:31.709Z,5.20
2022-08-18T13:55:59.354Z,5.90
2022-08-18T13:58:28.713Z,5.85
2022-08-18T14:01:39.755Z,6.13
2022-08-18T14:03:50.371Z,5.60
2022-08-18T14:06:22.887Z,5.97
2022-08-18T14:08:53.500Z,7.10
2022-08-18T14:11:27.616Z,8.93
2022-08-18T14:14:01.144Z,6.53
2022-08-18T14:16:29.174Z,6.70
2022-08-18T14:19:17.886Z,6.65
2022-08-18T14:22:17.628Z,6.38
2022-08-18T14:25:04.451Z,6.63
2022-08-18T14:27:38.449Z,6.38
2022-08-18T14:30:10.535Z,6.93
2022-08-18T14:32:48.906Z,5.65
2022-08-18T14:36:03.775Z,5.82
2022-08-18T14:38:05.694Z,6.28
2022-08-18T14:40:33.482Z,6.00
2022-08-18T14:43:02.711Z,6.57
2022-08-18T14:45:35.649Z,5.97
2022-08-18T14:48:10.946Z,5.97
2022-08-18T14:50:44.753Z,6.55
2022-08-18T14:53:21.949Z,6.88
2022-08-18T14:55:53.165Z,7.38
2022-08-18T14:58:28.834Z,6.63
2022-08-18T15:01:08.448Z,6.90
2022-08-18T15:03:39.302Z,6.60
2022-08-18T15:06:08.205Z,6.38
2022-08-18T15:08:46.979Z,6.55
2022-08-18T15:11:14.144Z,6.35
2022-08-18T15:13:45.179Z,6.00
2022-08-18T15:16:15.052Z,6.03
2022-08-18T15:18:44.189Z,5.85
2022-08-18T15:21:35.567Z,6.28
2022-08-18T15:24:25.845Z,6.72
2022-08-18T15:26:57.861Z,6.45
2022-08-18T15:29:29.131Z,6.85
2022-08-18T15:32:01.988Z,6.25
2022-08-18T15:34:32.238Z,6.85
2022-08-18T15:37:09.496Z,6.68
2022-08-18T15:39:37.231Z,5.57
2022-08-18T15:42:11.412Z,7.32
2022-08-18T15:44:38.770Z,7.35
2022-08-18T15:47:09.337Z,6.95
2022-08-18T15:49:36.772Z,6.25
2022-08-18T15:52:04.372Z,6.72
2022-08-18T15:54:31.401Z,6.30
2022-08-18T15:56:58.857Z,5.93
2022-08-18T15:59:34.117Z,5.90
2022-08-18T16:02:11.527Z,6.25
2022-08-18T16:04:41.324Z,6.53
2022-08-18T16:07:12.033Z,7.25
2022-08-18T16:09:39.010Z,7.22
2022-08-18T16:12:09.959Z,6.75
2022-08-18T16:14:41.022Z,6.15
2022-08-18T16:17:09.369Z,6.68
2022-08-18T16:19:44.971Z,6.85
2022-08-18T16:22:13.336Z,6.68
2022-08-18T16:24:40.374Z,6.88
2022-08-18T16:27:08.820Z,6.88
2022-08-18T16:29:36.506Z,7.25
2022-08-18T16:32:04.414Z,6.68
2022-08-18T16:34:32.257Z,7.10
2022-08-18T16:36:59.223Z,6.40
2022-08-18T16:39:26.171Z,6.93
2022-08-18T16:41:53.216Z,6.65
2022-08-18T16:44:20.579Z,6.60
2022-08-18T16:46:47.671Z,6.55
2022-08-18T16:49:14.899Z,6.95
2022-08-18T16:51:45.406Z,7.68
2022-08-18T16:54:14.342Z,6.53
2022-08-18T16:56:41.292Z,7.25
2022-08-18T16:59:27.292Z,6.72
2022-08-18T17:02:12.827Z,7.57
2022-08-18T17:04:40.506Z,7.25
2022-08-18T17:07:07.773Z,7.00
2022-08-18T17:09:35.460Z,6.82
2022-08-18T17:12:02.672Z,7.38
2022-08-18T17:14:31.981Z,6.25
2022-08-18T17:17:00.599Z,7.80
2022-08-18T17:19:33.727Z,6.35
2022-08-18T17:22:03.710Z,6.68
2022-08-18T17:24:31.798Z,7.25
2022-08-18T17:27:26.676Z,7.10
2022-08-18T17:30:20.155Z,6.82
2022-08-18T17:32:55.665Z,7.32
2022-08-18T17:35:33.395Z,8.18
2022-08-18T17:38:36.258Z,7.18
2022-08-18T17:41:04.674Z,7.70
2022-08-18T17:46:28.567Z,7.22
2022-08-18T17:49:47.699Z,6.95
2022-08-18T17:52:24.185Z,8.13
2022-08-18T17:54:58.217Z,8.60
2022-08-18T17:57:35.182Z,7.43
2022-08-18T18:00:15.400Z,8.52
2022-08-18T18:02:45.573Z,10.43
2022-08-18T18:05:18.407Z,9.38
2022-08-18T18:07:50.314Z,10.13
2022-08-18T18:11:04.378Z,8.68
2022-08-18T18:13:32.954Z,7.57
2022-08-18T18:16:25.022Z,7.65
2022-08-18T18:19:03.318Z,8.07
2022-08-18T18:22:00.445Z,8.23
2022-08-18T18:24:28.640Z,8.10
2022-08-18T18:26:55.592Z,8.15
2022-08-18T18:29:37.377Z,8.40
2022-08-18T18:32:30.125Z,8.65
2022-08-18T18:35:19.118Z,8.65
2022-08-18T18:37:54.570Z,8.43
2022-08-18T18:40:37.160Z,9.00
2022-08-18T18:43:29.131Z,8.73
2022-08-18T18:46:08.784Z,8.90
2022-08-18T18:48:56.943Z,8.45
2022-08-18T18:51:53.763Z,8.82
2022-08-18T18:54:55.521Z,8.32
2022-08-18T18:57:57.403Z,8.90
2022-08-18T19:00:37.288Z,7.93
2022-08-18T19:03:28.239Z,8.63
2022-08-18T19:06:22.456Z,9.15
2022-08-18T19:09:06.151Z,8.63
2022-08-18T19:11:56.494Z,9.20
2022-08-18T19:14:37.003Z,8.68
2022-08-18T19:17:20.959Z,9.25
2022-08-18T19:20:00.356Z,8.73
2022-08-18T19:23:31.505Z,7.88
2022-08-18T19:26:13.716Z,8.65
2022-08-18T19:29:10.311Z,8.15
2022-08-18T19:32:20.951Z,9.05
2022-08-18T19:34:51.230Z,8.07
2022-08-18T19:37:56.735Z,9.55
2022-08-18T19:40:54.487Z,8.59
2022-08-18T19:43:47.261Z,9.20
2022-08-18T19:46:59.585Z,8.52
2022-08-18T19:49:52.655Z,10.98
2022-08-18T19:52:46.506Z,9.65
2022-08-18T19:55:55.102Z,10.20
2022-08-18T19:58:36.288Z,9.57
2022-08-18T20:01:20.952Z,9.90
2022-08-18T20:04:09.570Z,9.20
2022-08-18T20:07:20.318Z,9.77
2022-08-18T20:10:23.032Z,9.23
2022-08-18T20:13:53.458Z,8.98
2022-08-18T20:16:34.556Z,9.32
2022-08-18T20:19:44.719Z,9.68
2022-08-18T20:22:34.203Z,8.82
2022-08-18T20:25:18.077Z,10.45
2022-08-18T20:27:58.503Z,9.25
2022-08-18T20:30:28.177Z,8.85
2022-08-18T20:33:38.086Z,8.50
2022-08-18T20:36:30.259Z,8.65
2022-08-18T20:39:00.020Z,9.00
2022-08-18T20:41:44.494Z,8.75
2022-08-18T20:44:45.428Z,9.27
2022-08-18T20:47:30.930Z,9.02
2022-08-18T20:50:31.467Z,8.60
2022-08-18T20:53:10.476Z,8.98
2022-08-18T20:56:44.065Z,8.32
2022-08-18T20:59:20.306Z,8.55
2022-08-18T21:02:35.046Z,9.40
2022-08-18T21:05:02.129Z,8.00
2022-08-18T21:07:38.186Z,8.05
2022-08-18T21:10:17.900Z,8.73
2022-08-18T21:12:55.858Z,8.80
2022-08-18T21:15:30.382Z,9.02
2022-08-18T21:18:21.243Z,8.18
2022-08-18T21:20:51.928Z,9.38
2022-08-18T21:23:29.833Z,8.88
2022-08-18T21:26:15.999Z,8.38
2022-08-18T21:28:51.866Z,8.43
2022-08-18T21:31:45.014Z,9.15
2022-08-18T21:34:36.280Z,9.23
2022-08-18T21:37:07.904Z,8.38
2022-08-18T21:39:46.275Z,8.48
2022-08-18T21:42:26.194Z,8.82
2022-08-18T21:44:56.869Z,9.02
2022-08-18T21:47:34.119Z,8.77
2022-08-18T21:50:16.468Z,8.23
2022-08-18T21:52:57.345Z,8.95
2022-08-18T21:55:31.834Z,8.90
2022-08-18T21:58:17.800Z,8.38
2022-08-18T22:01:21.670Z,8.43
2022-08-18T22:04:02.972Z,8.45
2022-08-18T22:06:41.144Z,7.40
2022-08-18T22:09:29.185Z,8.48
2022-08-18T22:12:44.523Z,8.27
2022-08-18T22:15:13.706Z,7.93
2022-08-18T22:17:52.083Z,8.30
2022-08-18T22:20:48.323Z,8.13
2022-08-18T22:23:33.831Z,8.63
2022-08-18T22:26:31.627Z,9.15
2022-08-18T22:29:10.257Z,8.43
2022-08-18T22:31:45.623Z,8.77
2022-08-18T22:34:28.030Z,8.55
2022-08-18T22:37:03.633Z,8.40
2022-08-18T22:39:56.243Z,7.65
2022-08-18T22:42:33.489Z,8.30
2022-08-18T22:45:04.445Z,8.82
2022-08-18T22:47:42.940Z,8.45
2022-08-18T22:50:13.691Z,8.55
2022-08-18T22:52:46.481Z,7.90
2022-08-18T22:55:22.040Z,7.82
2022-08-18T22:57:54.369Z,8.95
2022-08-18T23:00:25.178Z,8.57
2022-08-18T23:02:53.807Z,8.20
2022-08-18T23:05:21.738Z,8.32
2022-08-18T23:07:48.981Z,8.40
2022-08-18T23:10:16.763Z,8.43
2022-08-18T23:12:46.758Z,8.05
2022-08-18T23:15:16.590Z,9.05
2022-08-18T23:17:44.021Z,8.18
2022-08-18T23:20:17.951Z,8.05
2022-08-18T23:22:47.858Z,8.82
2022-08-18T23:25:15.726Z,8.07
2022-08-18T23:27:43.048Z,8.68
2022-08-18T23:30:11.204Z,9.20
2022-08-18T23:32:38.184Z,8.15
2022-08-18T23:35:05.815Z,8.20
2022-08-18T23:37:33.015Z,8.82
2022-08-18T23:40:00.113Z,8.52
2022-08-18T23:42:27.388Z,8.35
2022-08-18T23:45:03.685Z,8.00
2022-08-18T23:47:31.423Z,7.97
2022-08-18T23:49:58.511Z,7.53
2022-08-18T23:52:25.533Z,7.85
2022-08-18T23:54:52.509Z,8.50
2022-08-18T23:57:19.449Z,8.25
2022-08-18T23:59:46.373Z,8.45
